createdAt,value
2023-03-02T00:02:05.435Z,88.03
2023-03-02T00:07:15.187Z,87.78
2023-03-02T00:12:18.690Z,86.57
2023-03-02T00:17:28.113Z,85.69
2023-03-02T00:22:31.149Z,84.01
2023-03-02T00:27:34.129Z,84.04
2023-03-02T00:32:38.735Z,83.61
2023-03-02T00:37:41.838Z,84.12
2023-03-02T00:42:45.746Z,84.33
2023-03-02T00:47:48.738Z,82.76
2023-03-02T00:52:51.713Z,81.15
2023-03-02T00:57:57.611Z,80.16
2023-03-02T01:03:05.080Z,78.81
2023-03-02T01:08:08.255Z,77.80
2023-03-02T01:13:11.614Z,77.15
2023-03-02T01:18:15.550Z,76.11
2023-03-02T01:23:18.839Z,74.84
2023-03-02T01:28:21.848Z,74.97
2023-03-02T01:33:26.100Z,75.38
2023-03-02T01:38:29.192Z,74.44
2023-03-02T01:43:32.814Z,73.90
2023-03-02T01:48:50.595Z,73.86
2023-03-02T01:54:10.550Z,74.33
2023-03-02T01:59:17.107Z,75.69
2023-03-02T02:04:22.035Z,76.97
2023-03-02T02:09:28.430Z,77.33
2023-03-02T02:14:32.310Z,77.26
2023-03-02T02:20:07.461Z,78.05
2023-03-02T02:25:30.178Z,77.50
2023-03-02T02:30:33.258Z,76.46
2023-03-02T02:35:38.780Z,76.33
2023-03-02T02:40:53.094Z,76.28
2023-03-02T02:46:02.194Z,76.50
2023-03-02T02:51:08.668Z,76.71
2023-03-02T02:56:13.449Z,77.11
2023-03-02T03:01:26.409Z,75.75
2023-03-02T03:06:43.361Z,74.36
2023-03-02T03:11:50.101Z,73.73
2023-03-02T03:16:55.201Z,73.38
2023-03-02T03:22:00.964Z,73.61
2023-03-02T03:27:09.133Z,73.08
2023-03-02T03:32:15.138Z,73.32
2023-03-02T03:37:20.023Z,73.17
2023-03-02T03:42:24.565Z,73.37
2023-03-02T03:47:29.258Z,73.63
2023-03-02T03:52:32.469Z,74.48
2023-03-02T03:57:45.969Z,75.70
2023-03-02T04:02:51.154Z,75.33
2023-03-02T04:07:55.010Z,75.59
2023-03-02T04:12:59.109Z,76.83
2023-03-02T04:18:03.808Z,76.48
2023-03-02T04:23:08.412Z,75.44
2023-03-02T04:28:11.980Z,75.56
2023-03-02T04:33:16.777Z,75.52
2023-03-02T04:38:20.150Z,75.16
2023-03-02T04:43:25.855Z,74.64
2023-03-02T04:48:30.553Z,74.81
2023-03-02T04:53:33.841Z,75.22
2023-03-02T04:58:37.276Z,75.36
2023-03-02T05:03:40.608Z,75.63
2023-03-02T05:08:44.602Z,73.80
2023-03-02T05:13:48.184Z,73.43
2023-03-02T05:18:51.837Z,72.03
2023-03-02T05:23:55.143Z,69.61
2023-03-02T05:28:58.412Z,69.81
2023-03-02T05:34:03.528Z,69.01
2023-03-02T05:39:07.979Z,66.82
2023-03-02T05:44:12.862Z,67.50
2023-03-02T05:49:15.845Z,68.55
2023-03-02T05:54:19.298Z,69.59
2023-03-02T05:59:22.883Z,71.43
2023-03-02T06:04:26.632Z,72.32
2023-03-02T06:09:30.005Z,72.73
2023-03-02T06:14:34.215Z,73.63
2023-03-02T06:19:37.166Z,74.37
2023-03-02T06:24:40.086Z,73.14
2023-03-02T06:29:43.073Z,71.88
2023-03-02T06:34:45.981Z,68.09
2023-03-02T06:39:49.030Z,57.05
2023-03-02T06:44:52.229Z,52.42
2023-03-02T06:49:55.310Z,49.97
2023-03-02T06:54:58.344Z,47.39
2023-03-02T07:00:10.356Z,44.78
2023-03-02T07:05:13.737Z,42.69
2023-03-02T07:10:16.748Z,38.96
2023-03-02T07:15:21.012Z,38.75
2023-03-02T07:20:24.390Z,41.98
2023-03-02T07:25:27.829Z,46.21
2023-03-02T07:30:31.694Z,39.49
2023-03-02T07:35:34.732Z,36.51
2023-03-02T07:40:43.864Z,37.84
2023-03-02T07:45:47.487Z,39.65
2023-03-02T07:50:50.547Z,42.39
2023-03-02T07:55:54.422Z,45.52
2023-03-02T08:00:57.535Z,40.55
2023-03-02T08:06:06.491Z,36.76
2023-03-02T08:11:13.530Z,41.07
2023-03-02T08:16:16.982Z,41.27
2023-03-02T08:21:23.821Z,41.34
2023-03-02T08:26:26.629Z,41.29
2023-03-02T08:31:30.632Z,43.63
2023-03-02T08:36:33.960Z,39.94
2023-03-02T08:41:37.281Z,37.79
2023-03-02T08:46:40.686Z,37.86
2023-03-02T08:51:44.245Z,36.48
2023-03-02T08:56:47.185Z,37.22
2023-03-02T09:01:50.253Z,34.95
2023-03-02T09:06:53.270Z,35.53
2023-03-02T09:11:56.277Z,34.94
2023-03-02T09:17:00.176Z,40.57
2023-03-02T09:22:03.562Z,38.70
2023-03-02T09:27:06.582Z,40.64
2023-03-02T09:32:09.768Z,40.57
2023-03-02T09:37:12.728Z,38.55
2023-03-02T09:42:41.821Z,38.04
2023-03-02T09:48:13.535Z,38.98
2023-03-02T09:53:28.777Z,38.63
2023-03-02T09:58:37.974Z,38.78
2023-03-02T10:04:09.976Z,41.27
2023-03-02T10:09:13.856Z,38.80
2023-03-02T10:14:27.458Z,39.49
2023-03-02T10:19:42.700Z,40.41
2023-03-02T10:24:57.381Z,40.73
2023-03-02T10:30:14.836Z,38.86
2023-03-02T10:35:24.287Z,38.18
2023-03-02T10:40:46.819Z,36.06
2023-03-02T10:46:04.004Z,33.37
2023-03-02T10:51:07.568Z,30.10
2023-03-02T10:56:25.358Z,31.02
2023-03-02T11:01:32.410Z,30.80
2023-03-02T11:06:36.218Z,33.13
2023-03-02T11:11:39.679Z,36.48
2023-03-02T11:16:44.137Z,35.94
2023-03-02T11:22:03.284Z,34.78
2023-03-02T11:27:14.636Z,36.18
2023-03-02T11:32:45.400Z,36.60
2023-03-02T11:37:55.099Z,37.30
2023-03-02T11:43:01.083Z,37.86
2023-03-02T11:48:09.363Z,37.61
2023-03-02T11:53:18.635Z,37.13
2023-03-02T11:58:25.721Z,35.60
2023-03-02T12:03:28.638Z,34.12
2023-03-02T12:08:34.879Z,36.76
2023-03-02T12:13:40.120Z,37.12
2023-03-02T12:18:51.987Z,37.91
2023-03-02T12:23:59.654Z,35.13
2023-03-02T12:29:13.880Z,34.05
2023-03-02T12:34:43.752Z,32.71
2023-03-02T12:40:11.303Z,31.93
2023-03-02T12:45:34.070Z,33.51
2023-03-02T12:50:38.666Z,33.20
2023-03-02T12:55:41.746Z,35.95
2023-03-02T13:00:58.201Z,33.27
2023-03-02T13:06:03.122Z,30.81
2023-03-02T13:11:06.659Z,34.86
2023-03-02T13:16:25.125Z,33.19
2023-03-02T13:21:34.319Z,29.61
2023-03-02T13:26:40.070Z,30.12
2023-03-02T13:31:43.174Z,28.50
2023-03-02T13:36:47.042Z,28.10
2023-03-02T13:42:01.451Z,30.63
2023-03-02T13:47:05.124Z,29.91
2023-03-02T13:52:28.433Z,30.06
2023-03-02T13:57:33.030Z,28.44
2023-03-02T14:02:36.033Z,32.06
2023-03-02T14:07:38.980Z,31.71
2023-03-02T14:12:48.713Z,30.45
2023-03-02T14:17:51.708Z,32.16
2023-03-02T14:22:55.206Z,31.08
2023-03-02T14:27:58.452Z,29.38
2023-03-02T14:33:01.866Z,29.35
2023-03-02T14:38:05.230Z,33.36
2023-03-02T14:43:10.823Z,33.09
2023-03-02T14:48:13.956Z,34.64
2023-03-02T14:53:21.175Z,37.82
2023-03-02T14:58:31.812Z,39.88
2023-03-02T15:03:34.776Z,39.34
2023-03-02T15:08:38.671Z,38.24
2023-03-02T15:13:41.616Z,38.94
2023-03-02T15:18:45.328Z,41.51
2023-03-02T15:23:48.482Z,46.64
2023-03-02T15:28:52.704Z,46.15
2023-03-02T15:33:56.662Z,46.25
2023-03-02T15:38:59.767Z,45.57
2023-03-02T15:44:02.818Z,46.46
2023-03-02T15:49:05.883Z,47.26
2023-03-02T15:54:11.102Z,47.28
2023-03-02T15:59:14.059Z,48.35
2023-03-02T16:04:18.374Z,49.67
2023-03-02T16:09:22.208Z,52.90
2023-03-02T16:14:25.402Z,54.27
2023-03-02T16:19:29.279Z,56.46
2023-03-02T16:24:32.265Z,56.26
2023-03-02T16:29:35.321Z,57.59
2023-03-02T16:34:38.672Z,58.34
2023-03-02T16:39:42.224Z,60.27
2023-03-02T16:44:46.147Z,60.89
2023-03-02T16:49:49.153Z,61.45
2023-03-02T16:54:52.128Z,62.41
2023-03-02T16:59:55.630Z,65.16
2023-03-02T17:04:58.713Z,65.05
2023-03-02T17:10:03.156Z,61.60
2023-03-02T17:15:07.235Z,58.65
2023-03-02T17:20:12.293Z,58.44
2023-03-02T17:25:18.322Z,59.16
2023-03-02T17:30:22.220Z,60.08
2023-03-02T17:35:25.331Z,60.62
2023-03-02T17:40:28.651Z,61.99
2023-03-02T17:45:32.014Z,61.92
2023-03-02T17:50:35.552Z,62.34
2023-03-02T17:55:39.329Z,62.86
2023-03-02T18:00:43.380Z,62.74
2023-03-02T18:05:47.494Z,63.58
2023-03-02T18:10:51.280Z,63.63
2023-03-02T18:15:54.701Z,63.87
2023-03-02T18:20:58.125Z,64.03
2023-03-02T18:26:01.556Z,64.50
2023-03-02T18:31:05.165Z,64.72
2023-03-02T18:36:09.107Z,64.25
2023-03-02T18:41:14.258Z,63.89
2023-03-02T18:46:24.727Z,63.65
2023-03-02T18:51:28.733Z,63.42
2023-03-02T18:56:32.268Z,63.27
2023-03-02T19:01:36.283Z,63.73
2023-03-02T19:06:40.489Z,64.60
2023-03-02T19:11:43.649Z,65.25
2023-03-02T19:16:47.391Z,65.96
2023-03-02T19:21:51.153Z,65.15
2023-03-02T19:26:55.176Z,63.87
2023-03-02T19:31:59.259Z,65.03
2023-03-02T19:37:02.982Z,65.47
2023-03-02T19:42:06.697Z,67.07
2023-03-02T19:47:09.781Z,71.95
2023-03-02T19:52:13.334Z,78.53
2023-03-02T19:57:17.048Z,81.72
2023-03-02T20:02:20.621Z,83.47
2023-03-02T20:07:23.603Z,87.39
2023-03-02T20:12:27.241Z,89.01
2023-03-02T20:17:30.439Z,89.91
2023-03-02T20:22:33.879Z,90.76
2023-03-02T20:27:36.899Z,91.89
2023-03-02T20:32:40.558Z,92.58
2023-03-02T20:37:44.729Z,93.63
2023-03-02T20:42:48.190Z,93.82
2023-03-02T20:47:51.183Z,94.94
2023-03-02T20:52:54.262Z,94.80
2023-03-02T20:57:58.401Z,94.99
2023-03-02T21:03:01.419Z,95.19
2023-03-02T21:08:05.118Z,95.70
2023-03-02T21:13:10.832Z,95.73
2023-03-02T21:18:13.980Z,96.12
2023-03-02T21:23:18.226Z,96.25
2023-03-02T21:28:22.117Z,96.76
2023-03-02T21:33:25.760Z,97.01
2023-03-02T21:38:29.711Z,97.30
2023-03-02T21:43:33.708Z,97.61
2023-03-02T21:48:37.567Z,97.97
2023-03-02T21:53:42.270Z,98.20
2023-03-02T21:58:47.629Z,98.41
2023-03-02T22:03:51.886Z,98.68
2023-03-02T22:08:57.780Z,98.96
2023-03-02T22:14:16.192Z,99.20
2023-03-02T22:19:27.363Z,99.53
2023-03-02T22:24:33.917Z,99.78
2023-03-02T22:29:43.746Z,99.90
2023-03-02T22:34:54.996Z,100.00
2023-03-02T22:40:02.813Z,100.00
2023-03-02T22:45:22.064Z,100.00
2023-03-02T22:50:28.816Z,100.00
2023-03-02T22:55:38.969Z,100.00
2023-03-02T23:00:42.521Z,100.00
2023-03-02T23:05:51.409Z,100.00
2023-03-02T23:11:00.989Z,100.00
2023-03-02T23:16:16.329Z,100.00
2023-03-02T23:21:28.477Z,100.00
2023-03-02T23:26:32.840Z,99.45
2023-03-02T23:31:36.412Z,98.73
2023-03-02T23:36:41.320Z,97.79
2023-03-02T23:41:45.644Z,96.20
2023-03-02T23:46:49.900Z,95.06
2023-03-02T23:51:53.391Z,93.77
2023-03-02T23:56:57.167Z,92.25
